sensor_id;sensor_type;location;lat;lon;timestamp;temperature;humidity
65752;DHT22;52486;51.098;13.770;2022-10-16T00:01:11;24.30;67.50
65752;DHT22;52486;51.098;13.770;2022-10-16T00:03:38;24.30;68.20
65752;DHT22;52486;51.098;13.770;2022-10-16T00:06:04;24.40;67.80
65752;DHT22;52486;51.098;13.770;2022-10-16T00:08:30;24.40;67.80
65752;DHT22;52486;51.098;13.770;2022-10-16T00:11:11;24.40;67.80
65752;DHT22;52486;51.098;13.770;2022-10-16T00:13:38;24.50;66.30
65752;DHT22;52486;51.098;13.770;2022-10-16T00:16:05;24.40;67.80
65752;DHT22;52486;51.098;13.770;2022-10-16T00:18:31;24.60;68.10
65752;DHT22;52486;51.098;13.770;2022-10-16T00:21:05;24.20;67.90
65752;DHT22;52486;51.098;13.770;2022-10-16T00:23:32;24.40;68.10
65752;DHT22;52486;51.098;13.770;2022-10-16T00:26:00;24.40;67.80
65752;DHT22;52486;51.098;13.770;2022-10-16T00:28:26;24.30;67.80
65752;DHT22;52486;51.098;13.770;2022-10-16T00:30:53;24.30;67.70
65752;DHT22;52486;51.098;13.770;2022-10-16T00:33:19;24.20;67.80
65752;DHT22;52486;51.098;13.770;2022-10-16T00:35:45;24.40;68.10
65752;DHT22;52486;51.098;13.770;2022-10-16T00:38:11;24.30;68.00
65752;DHT22;52486;51.098;13.770;2022-10-16T00:40:36;24.50;68.00
65752;DHT22;52486;51.098;13.770;2022-10-16T00:43:02;24.20;67.90
65752;DHT22;52486;51.098;13.770;2022-10-16T00:45:28;24.30;67.80
65752;DHT22;52486;51.098;13.770;2022-10-16T00:47:55;24.40;68.00
65752;DHT22;52486;51.098;13.770;2022-10-16T00:50:30;24.40;68.00
65752;DHT22;52486;51.098;13.770;2022-10-16T00:52:57;24.30;68.20
65752;DHT22;52486;51.098;13.770;2022-10-16T00:55:24;24.20;67.80
65752;DHT22;52486;51.098;13.770;2022-10-16T00:57:50;24.40;68.00
65752;DHT22;52486;51.098;13.770;2022-10-16T01:00:20;24.40;67.80
65752;DHT22;52486;51.098;13.770;2022-10-16T01:02:56;24.20;68.00
65752;DHT22;52486;51.098;13.770;2022-10-16T01:05:25;24.30;66.20
65752;DHT22;52486;51.098;13.770;2022-10-16T01:07:56;24.40;68.10
65752;DHT22;52486;51.098;13.770;2022-10-16T01:12:59;24.50;66.80
65752;DHT22;52486;51.098;13.770;2022-10-16T01:15:37;24.20;68.90
65752;DHT22;52486;51.098;13.770;2022-10-16T01:18:26;24.70;66.60
65752;DHT22;52486;51.098;13.770;2022-10-16T01:20:59;24.50;68.60
65752;DHT22;52486;51.098;13.770;2022-10-16T01:23:38;24.40;68.30
65752;DHT22;52486;51.098;13.770;2022-10-16T01:26:24;24.20;68.30
65752;DHT22;52486;51.098;13.770;2022-10-16T01:31:50;24.40;66.70
65752;DHT22;52486;51.098;13.770;2022-10-16T01:34:31;24.20;68.20
65752;DHT22;52486;51.098;13.770;2022-10-16T01:37:15;24.40;68.50
65752;DHT22;52486;51.098;13.770;2022-10-16T01:39:44;24.20;66.50
65752;DHT22;52486;51.098;13.770;2022-10-16T01:42:35;24.20;68.10
65752;DHT22;52486;51.098;13.770;2022-10-16T01:45:02;24.40;68.70
65752;DHT22;52486;51.098;13.770;2022-10-16T01:47:31;24.40;68.00
65752;DHT22;52486;51.098;13.770;2022-10-16T01:49:59;24.30;68.10
65752;DHT22;52486;51.098;13.770;2022-10-16T01:52:27;24.50;68.20
65752;DHT22;52486;51.098;13.770;2022-10-16T01:54:55;24.20;68.20
65752;DHT22;52486;51.098;13.770;2022-10-16T01:57:24;24.40;68.30
65752;DHT22;52486;51.098;13.770;2022-10-16T01:59:53;24.20;68.30
65752;DHT22;52486;51.098;13.770;2022-10-16T02:02:20;24.40;68.20
65752;DHT22;52486;51.098;13.770;2022-10-16T02:04:51;24.20;68.10
65752;DHT22;52486;51.098;13.770;2022-10-16T02:07:18;24.40;68.30
65752;DHT22;52486;51.098;13.770;2022-10-16T02:09:44;24.20;68.20
65752;DHT22;52486;51.098;13.770;2022-10-16T02:12:15;24.20;68.20
65752;DHT22;52486;51.098;13.770;2022-10-16T02:14:44;24.30;68.40
65752;DHT22;52486;51.098;13.770;2022-10-16T02:17:12;24.40;68.30
65752;DHT22;52486;51.098;13.770;2022-10-16T02:19:38;23.90;68.10
65752;DHT22;52486;51.098;13.770;2022-10-16T02:22:05;24.30;68.40
65752;DHT22;52486;51.098;13.770;2022-10-16T02:24:44;24.30;68.20
65752;DHT22;52486;51.098;13.770;2022-10-16T02:30:38;24.40;66.90
65752;DHT22;52486;51.098;13.770;2022-10-16T02:33:07;24.30;68.80
65752;DHT22;52486;51.098;13.770;2022-10-16T02:35:35;24.20;68.30
65752;DHT22;52486;51.098;13.770;2022-10-16T02:38:02;24.20;68.20
65752;DHT22;52486;51.098;13.770;2022-10-16T02:40:28;24.20;68.30
65752;DHT22;52486;51.098;13.770;2022-10-16T02:42:55;24.20;68.40
65752;DHT22;52486;51.098;13.770;2022-10-16T02:45:22;24.10;68.20
65752;DHT22;52486;51.098;13.770;2022-10-16T02:47:47;24.10;68.20
65752;DHT22;52486;51.098;13.770;2022-10-16T02:50:13;24.20;68.20
65752;DHT22;52486;51.098;13.770;2022-10-16T02:52:39;24.40;68.30
65752;DHT22;52486;51.098;13.770;2022-10-16T02:55:05;24.40;68.50
65752;DHT22;52486;51.098;13.770;2022-10-16T02:57:31;24.10;68.00
65752;DHT22;52486;51.098;13.770;2022-10-16T02:59:57;24.40;68.50
65752;DHT22;52486;51.098;13.770;2022-10-16T03:02:22;24.20;68.40
65752;DHT22;52486;51.098;13.770;2022-10-16T03:04:48;24.20;68.40
65752;DHT22;52486;51.098;13.770;2022-10-16T03:07:14;24.20;68.40
65752;DHT22;52486;51.098;13.770;2022-10-16T03:09:39;24.40;68.50
65752;DHT22;52486;51.098;13.770;2022-10-16T03:12:05;24.10;68.30
65752;DHT22;52486;51.098;13.770;2022-10-16T03:14:31;24.00;68.30
65752;DHT22;52486;51.098;13.770;2022-10-16T03:16:57;24.10;68.40
65752;DHT22;52486;51.098;13.770;2022-10-16T03:19:22;24.30;68.50
65752;DHT22;52486;51.098;13.770;2022-10-16T03:21:48;24.40;68.60
65752;DHT22;52486;51.098;13.770;2022-10-16T03:24:13;24.20;68.50
65752;DHT22;52486;51.098;13.770;2022-10-16T03:26:39;24.30;68.60
65752;DHT22;52486;51.098;13.770;2022-10-16T03:29:05;24.20;68.60
65752;DHT22;52486;51.098;13.770;2022-10-16T03:31:30;24.40;68.70
65752;DHT22;52486;51.098;13.770;2022-10-16T03:33:56;24.20;68.40
65752;DHT22;52486;51.098;13.770;2022-10-16T03:36:22;24.10;68.30
65752;DHT22;52486;51.098;13.770;2022-10-16T03:38:47;24.30;68.50
65752;DHT22;52486;51.098;13.770;2022-10-16T03:41:13;24.10;68.40
65752;DHT22;52486;51.098;13.770;2022-10-16T03:43:39;24.10;68.40
65752;DHT22;52486;51.098;13.770;2022-10-16T03:46:04;24.20;68.60
65752;DHT22;52486;51.098;13.770;2022-10-16T03:48:30;24.30;68.50
65752;DHT22;52486;51.098;13.770;2022-10-16T03:50:55;24.20;68.60
65752;DHT22;52486;51.098;13.770;2022-10-16T03:53:21;24.20;68.50
65752;DHT22;52486;51.098;13.770;2022-10-16T03:55:47;24.20;68.60
65752;DHT22;52486;51.098;13.770;2022-10-16T03:58:12;24.20;68.50
65752;DHT22;52486;51.098;13.770;2022-10-16T04:00:42;24.20;68.70
65752;DHT22;52486;51.098;13.770;2022-10-16T04:03:08;24.30;68.80
65752;DHT22;52486;51.098;13.770;2022-10-16T04:05:34;24.20;68.60
65752;DHT22;52486;51.098;13.770;2022-10-16T04:07:59;24.20;68.50
65752;DHT22;52486;51.098;13.770;2022-10-16T04:10:25;24.00;68.50
65752;DHT22;52486;51.098;13.770;2022-10-16T04:12:50;24.10;68.50
65752;DHT22;52486;51.098;13.770;2022-10-16T04:15:16;24.20;68.70
65752;DHT22;52486;51.098;13.770;2022-10-16T04:17:42;24.40;68.60
65752;DHT22;52486;51.098;13.770;2022-10-16T04:20:07;24.20;68.60
65752;DHT22;52486;51.098;13.770;2022-10-16T04:22:33;24.10;68.50
65752;DHT22;52486;51.098;13.770;2022-10-16T04:24:58;24.00;68.50
65752;DHT22;52486;51.098;13.770;2022-10-16T04:27:24;24.20;68.50
65752;DHT22;52486;51.098;13.770;2022-10-16T04:29:50;24.20;68.70
65752;DHT22;52486;51.098;13.770;2022-10-16T04:32:15;24.40;68.60
65752;DHT22;52486;51.098;13.770;2022-10-16T04:34:41;24.10;68.50
65752;DHT22;52486;51.098;13.770;2022-10-16T04:37:06;24.30;68.60
65752;DHT22;52486;51.098;13.770;2022-10-16T04:39:32;24.10;68.60
65752;DHT22;52486;51.098;13.770;2022-10-16T04:41:57;24.20;68.60
65752;DHT22;52486;51.098;13.770;2022-10-16T04:44:23;24.00;68.50
65752;DHT22;52486;51.098;13.770;2022-10-16T04:46:50;24.10;68.60
65752;DHT22;52486;51.098;13.770;2022-10-16T04:49:16;24.20;68.60
65752;DHT22;52486;51.098;13.770;2022-10-16T04:51:42;24.10;68.60
65752;DHT22;52486;51.098;13.770;2022-10-16T04:54:08;24.20;68.60
65752;DHT22;52486;51.098;13.770;2022-10-16T04:56:34;24.30;68.70
65752;DHT22;52486;51.098;13.770;2022-10-16T04:59:05;24.10;68.50
65752;DHT22;52486;51.098;13.770;2022-10-16T05:01:31;24.10;68.70
65752;DHT22;52486;51.098;13.770;2022-10-16T05:03:56;24.10;68.60
65752;DHT22;52486;51.098;13.770;2022-10-16T05:06:22;24.30;68.80
65752;DHT22;52486;51.098;13.770;2022-10-16T05:08:47;24.30;68.70
65752;DHT22;52486;51.098;13.770;2022-10-16T05:11:13;24.10;68.70
65752;DHT22;52486;51.098;13.770;2022-10-16T05:13:38;24.10;68.60
65752;DHT22;52486;51.098;13.770;2022-10-16T05:16:04;24.20;68.70
65752;DHT22;52486;51.098;13.770;2022-10-16T05:18:30;24.30;68.50
65752;DHT22;52486;51.098;13.770;2022-10-16T05:20:55;24.20;68.80
65752;DHT22;52486;51.098;13.770;2022-10-16T05:23:21;24.30;68.80
65752;DHT22;52486;51.098;13.770;2022-10-16T05:25:56;24.20;68.70
65752;DHT22;52486;51.098;13.770;2022-10-16T05:28:24;24.00;69.00
65752;DHT22;52486;51.098;13.770;2022-10-16T05:30:50;24.30;68.80
65752;DHT22;52486;51.098;13.770;2022-10-16T05:33:16;24.30;68.90
65752;DHT22;52486;51.098;13.770;2022-10-16T05:35:41;24.10;68.90
65752;DHT22;52486;51.098;13.770;2022-10-16T05:38:07;24.20;68.70
65752;DHT22;52486;51.098;13.770;2022-10-16T05:40:33;26.10;70.20
65752;DHT22;52486;51.098;13.770;2022-10-16T05:42:58;24.20;68.80
65752;DHT22;52486;51.098;13.770;2022-10-16T05:45:24;24.30;68.90
65752;DHT22;52486;51.098;13.770;2022-10-16T05:47:49;24.10;68.70
65752;DHT22;52486;51.098;13.770;2022-10-16T05:50:15;24.40;68.80
65752;DHT22;52486;51.098;13.770;2022-10-16T05:52:40;24.10;68.80
65752;DHT22;52486;51.098;13.770;2022-10-16T05:55:06;24.10;68.70
65752;DHT22;52486;51.098;13.770;2022-10-16T05:57:32;24.10;68.30
65752;DHT22;52486;51.098;13.770;2022-10-16T05:59:58;24.20;68.80
65752;DHT22;52486;51.098;13.770;2022-10-16T06:02:23;23.90;68.70
65752;DHT22;52486;51.098;13.770;2022-10-16T06:04:49;24.20;68.90
65752;DHT22;52486;51.098;13.770;2022-10-16T06:07:14;24.10;68.80
65752;DHT22;52486;51.098;13.770;2022-10-16T06:09:40;24.30;68.80
65752;DHT22;52486;51.098;13.770;2022-10-16T06:12:05;24.00;68.70
65752;DHT22;52486;51.098;13.770;2022-10-16T06:14:31;24.00;68.60
65752;DHT22;52486;51.098;13.770;2022-10-16T06:16:56;24.20;69.00
65752;DHT22;52486;51.098;13.770;2022-10-16T06:19:22;24.20;68.90
65752;DHT22;52486;51.098;13.770;2022-10-16T06:21:48;24.20;69.00
65752;DHT22;52486;51.098;13.770;2022-10-16T06:24:13;24.20;68.90
65752;DHT22;52486;51.098;13.770;2022-10-16T06:26:39;24.20;68.90
65752;DHT22;52486;51.098;13.770;2022-10-16T06:29:04;24.10;68.80
65752;DHT22;52486;51.098;13.770;2022-10-16T06:31:30;24.10;68.90
65752;DHT22;52486;51.098;13.770;2022-10-16T06:33:59;24.10;68.80
65752;DHT22;52486;51.098;13.770;2022-10-16T06:36:25;24.10;68.90
65752;DHT22;52486;51.098;13.770;2022-10-16T06:38:51;24.10;69.00
65752;DHT22;52486;51.098;13.770;2022-10-16T06:41:19;24.20;68.90
65752;DHT22;52486;51.098;13.770;2022-10-16T06:43:46;24.10;68.90
65752;DHT22;52486;51.098;13.770;2022-10-16T06:46:14;24.30;68.80
65752;DHT22;52486;51.098;13.770;2022-10-16T06:48:40;24.40;69.00
65752;DHT22;52486;51.098;13.770;2022-10-16T06:51:14;24.20;68.70
65752;DHT22;52486;51.098;13.770;2022-10-16T06:53:43;24.00;69.20
65752;DHT22;52486;51.098;13.770;2022-10-16T06:56:17;24.20;68.90
65752;DHT22;52486;51.098;13.770;2022-10-16T06:58:43;24.20;66.90
65752;DHT22;52486;51.098;13.770;2022-10-16T07:01:09;24.80;69.40
65752;DHT22;52486;51.098;13.770;2022-10-16T07:03:43;24.20;68.90
65752;DHT22;52486;51.098;13.770;2022-10-16T07:06:10;24.10;69.10
65752;DHT22;52486;51.098;13.770;2022-10-16T07:08:41;24.10;68.80
65752;DHT22;52486;51.098;13.770;2022-10-16T07:11:15;24.10;69.00
65752;DHT22;52486;51.098;13.770;2022-10-16T07:13:42;24.10;69.10
65752;DHT22;52486;51.098;13.770;2022-10-16T07:16:11;24.10;68.80
65752;DHT22;52486;51.098;13.770;2022-10-16T07:18:37;24.10;68.90
65752;DHT22;52486;51.098;13.770;2022-10-16T07:21:13;24.10;68.70
65752;DHT22;52486;51.098;13.770;2022-10-16T07:23:40;24.30;69.20
65752;DHT22;52486;51.098;13.770;2022-10-16T07:26:06;24.00;68.70
65752;DHT22;52486;51.098;13.770;2022-10-16T07:28:32;24.20;68.90
65752;DHT22;52486;51.098;13.770;2022-10-16T07:31:06;24.30;69.10
65752;DHT22;52486;51.098;13.770;2022-10-16T07:33:32;24.20;69.20
65752;DHT22;52486;51.098;13.770;2022-10-16T07:35:58;23.90;68.60
65752;DHT22;52486;51.098;13.770;2022-10-16T07:38:24;24.80;69.30
65752;DHT22;52486;51.098;13.770;2022-10-16T07:41:17;24.20;68.90
65752;DHT22;52486;51.098;13.770;2022-10-16T07:43:50;24.20;69.40
65752;DHT22;52486;51.098;13.770;2022-10-16T07:46:16;24.00;69.70
65752;DHT22;52486;51.098;13.770;2022-10-16T07:48:43;24.30;69.00
65752;DHT22;52486;51.098;13.770;2022-10-16T07:51:13;24.10;68.80
65752;DHT22;52486;51.098;13.770;2022-10-16T07:53:38;24.20;68.90
65752;DHT22;52486;51.098;13.770;2022-10-16T07:56:06;24.30;69.00
65752;DHT22;52486;51.098;13.770;2022-10-16T07:58:32;24.10;68.90
65752;DHT22;52486;51.098;13.770;2022-10-16T08:00:58;24.20;68.90
65752;DHT22;52486;51.098;13.770;2022-10-16T08:03:25;24.40;69.10
65752;DHT22;52486;51.098;13.770;2022-10-16T08:05:50;24.10;68.90
65752;DHT22;52486;51.098;13.770;2022-10-16T08:08:18;24.30;69.00
65752;DHT22;52486;51.098;13.770;2022-10-16T08:10:44;24.20;69.00
65752;DHT22;52486;51.098;13.770;2022-10-16T08:13:10;24.20;68.90
65752;DHT22;52486;51.098;13.770;2022-10-16T08:15:35;24.40;69.10
65752;DHT22;52486;51.098;13.770;2022-10-16T08:18:03;24.20;68.90
65752;DHT22;52486;51.098;13.770;2022-10-16T08:20:30;24.20;68.80
65752;DHT22;52486;51.098;13.770;2022-10-16T08:22:55;24.10;68.80
65752;DHT22;52486;51.098;13.770;2022-10-16T08:25:22;24.20;68.90
65752;DHT22;52486;51.098;13.770;2022-10-16T08:27:48;24.10;68.80
65752;DHT22;52486;51.098;13.770;2022-10-16T08:30:13;24.30;69.00
65752;DHT22;52486;51.098;13.770;2022-10-16T08:32:39;24.00;68.80
65752;DHT22;52486;51.098;13.770;2022-10-16T08:35:06;24.20;68.80
65752;DHT22;52486;51.098;13.770;2022-10-16T08:37:33;24.10;68.60
65752;DHT22;52486;51.098;13.770;2022-10-16T08:39:58;24.10;68.70
65752;DHT22;52486;51.098;13.770;2022-10-16T08:50:23;24.20;67.50
65752;DHT22;52486;51.098;13.770;2022-10-16T08:52:50;24.30;69.10
65752;DHT22;52486;51.098;13.770;2022-10-16T08:55:32;24.10;68.90
65752;DHT22;52486;51.098;13.770;2022-10-16T08:58:00;24.10;67.20
65752;DHT22;52486;51.098;13.770;2022-10-16T09:00:26;24.40;68.90
65752;DHT22;52486;51.098;13.770;2022-10-16T09:05:52;24.20;66.90
65752;DHT22;52486;51.098;13.770;2022-10-16T09:08:24;24.40;66.70
65752;DHT22;52486;51.098;13.770;2022-10-16T09:16:33;24.40;66.80
65752;DHT22;52486;51.098;13.770;2022-10-16T09:19:09;24.50;68.90
65752;DHT22;52486;51.098;13.770;2022-10-16T09:21:42;24.70;68.60
65752;DHT22;52486;51.098;13.770;2022-10-16T09:24:23;24.40;68.30
65752;DHT22;52486;51.098;13.770;2022-10-16T09:26:50;24.80;66.70
65752;DHT22;52486;51.098;13.770;2022-10-16T09:29:17;24.60;68.10
65752;DHT22;52486;51.098;13.770;2022-10-16T09:31:45;24.90;68.00
65752;DHT22;52486;51.098;13.770;2022-10-16T09:34:30;24.70;68.00
65752;DHT22;52486;51.098;13.770;2022-10-16T09:36:57;24.90;66.20
65752;DHT22;52486;51.098;13.770;2022-10-16T09:39:24;25.00;67.90
65752;DHT22;52486;51.098;13.770;2022-10-16T09:41:50;24.90;67.80
65752;DHT22;52486;51.098;13.770;2022-10-16T09:44:28;24.80;67.60
65752;DHT22;52486;51.098;13.770;2022-10-16T09:47:21;24.90;68.00
65752;DHT22;52486;51.098;13.770;2022-10-16T09:49:58;25.10;66.10
65752;DHT22;52486;51.098;13.770;2022-10-16T09:52:27;25.00;65.80
65752;DHT22;52486;51.098;13.770;2022-10-16T09:54:55;25.00;67.60
65752;DHT22;52486;51.098;13.770;2022-10-16T09:57:22;24.80;67.40
65752;DHT22;52486;51.098;13.770;2022-10-16T09:59:55;25.00;67.50
65752;DHT22;52486;51.098;13.770;2022-10-16T10:02:41;25.00;65.60
65752;DHT22;52486;51.098;13.770;2022-10-16T10:05:27;25.00;68.00
65752;DHT22;52486;51.098;13.770;2022-10-16T10:07:58;25.10;67.70
65752;DHT22;52486;51.098;13.770;2022-10-16T10:10:30;25.00;65.30
65752;DHT22;52486;51.098;13.770;2022-10-16T10:12:56;25.20;67.50
65752;DHT22;52486;51.098;13.770;2022-10-16T10:15:23;25.00;67.20
65752;DHT22;52486;51.098;13.770;2022-10-16T10:17:54;25.20;67.20
65752;DHT22;52486;51.098;13.770;2022-10-16T10:20:24;25.10;67.40
65752;DHT22;52486;51.098;13.770;2022-10-16T10:22:51;25.40;65.90
65752;DHT22;52486;51.098;13.770;2022-10-16T10:25:35;25.40;67.30
65752;DHT22;52486;51.098;13.770;2022-10-16T10:31:08;25.50;65.30
65752;DHT22;52486;51.098;13.770;2022-10-16T10:33:46;25.50;65.80
65752;DHT22;52486;51.098;13.770;2022-10-16T10:36:30;25.20;67.40
65752;DHT22;52486;51.098;13.770;2022-10-16T10:39:00;25.50;65.90
65752;DHT22;52486;51.098;13.770;2022-10-16T10:44:21;25.40;67.50
65752;DHT22;52486;51.098;13.770;2022-10-16T10:46:57;25.60;65.70
65752;DHT22;52486;51.098;13.770;2022-10-16T10:49:29;25.40;67.40
65752;DHT22;52486;51.098;13.770;2022-10-16T10:57:39;25.90;67.90
65752;DHT22;52486;51.098;13.770;2022-10-16T11:00:21;25.50;65.50
65752;DHT22;52486;51.098;13.770;2022-10-16T11:05:52;25.50;65.40
65752;DHT22;52486;51.098;13.770;2022-10-16T11:08:29;25.70;65.60
65752;DHT22;52486;51.098;13.770;2022-10-16T11:11:25;25.60;65.30
65752;DHT22;52486;51.098;13.770;2022-10-16T11:13:59;25.60;65.70
65752;DHT22;52486;51.098;13.770;2022-10-16T11:18:58;25.50;67.20
65752;DHT22;52486;51.098;13.770;2022-10-16T11:21:26;25.50;67.20
65752;DHT22;52486;51.098;13.770;2022-10-16T11:24:04;25.70;67.20
65752;DHT22;52486;51.098;13.770;2022-10-16T11:26:35;25.70;67.40
65752;DHT22;52486;51.098;13.770;2022-10-16T11:29:04;25.50;67.20
65752;DHT22;52486;51.098;13.770;2022-10-16T11:31:40;25.60;67.00
65752;DHT22;52486;51.098;13.770;2022-10-16T11:34:34;25.50;67.10
65752;DHT22;52486;51.098;13.770;2022-10-16T11:37:14;25.60;65.50
65752;DHT22;52486;51.098;13.770;2022-10-16T11:39:43;25.60;67.40
65752;DHT22;52486;51.098;13.770;2022-10-16T11:42:13;25.60;67.30
65752;DHT22;52486;51.098;13.770;2022-10-16T11:45:00;25.50;67.10
65752;DHT22;52486;51.098;13.770;2022-10-16T11:47:40;25.60;67.50
65752;DHT22;52486;51.098;13.770;2022-10-16T11:50:29;25.60;67.60
65752;DHT22;52486;51.098;13.770;2022-10-16T11:55:40;25.60;65.30
65752;DHT22;52486;51.098;13.770;2022-10-16T11:58:12;25.30;66.70
65752;DHT22;52486;51.098;13.770;2022-10-16T12:00:54;25.60;67.10
65752;DHT22;52486;51.098;13.770;2022-10-16T12:03:30;25.80;65.30
65752;DHT22;52486;51.098;13.770;2022-10-16T12:08:28;25.50;67.40
65752;DHT22;52486;51.098;13.770;2022-10-16T12:13:51;25.90;65.40
65752;DHT22;52486;51.098;13.770;2022-10-16T12:18:44;25.70;66.90
65752;DHT22;52486;51.098;13.770;2022-10-16T12:21:11;25.80;67.00
65752;DHT22;52486;51.098;13.770;2022-10-16T12:23:54;25.80;66.80
65752;DHT22;52486;51.098;13.770;2022-10-16T12:26:32;25.60;65.40
65752;DHT22;52486;51.098;13.770;2022-10-16T12:29:18;25.80;67.30
65752;DHT22;52486;51.098;13.770;2022-10-16T12:31:46;26.00;65.50
65752;DHT22;52486;51.098;13.770;2022-10-16T12:34:37;25.70;66.80
65752;DHT22;52486;51.098;13.770;2022-10-16T12:39:35;25.90;67.30
65752;DHT22;52486;51.098;13.770;2022-10-16T12:42:31;25.80;66.90
65752;DHT22;52486;51.098;13.770;2022-10-16T12:44:56;26.00;65.40
65752;DHT22;52486;51.098;13.770;2022-10-16T12:47:35;26.10;67.20
65752;DHT22;52486;51.098;13.770;2022-10-16T12:50:02;25.80;66.90
65752;DHT22;52486;51.098;13.770;2022-10-16T12:52:37;26.00;67.10
65752;DHT22;52486;51.098;13.770;2022-10-16T12:55:04;25.80;67.20
65752;DHT22;52486;51.098;13.770;2022-10-16T12:57:58;25.80;66.40
65752;DHT22;52486;51.098;13.770;2022-10-16T13:00:50;26.00;65.40
65752;DHT22;52486;51.098;13.770;2022-10-16T13:06:45;26.00;65.40
65752;DHT22;52486;51.098;13.770;2022-10-16T13:12:42;26.00;65.30
65752;DHT22;52486;51.098;13.770;2022-10-16T13:18:27;26.00;67.90
65752;DHT22;52486;51.098;13.770;2022-10-16T13:21:16;26.00;65.70
65752;DHT22;52486;51.098;13.770;2022-10-16T13:29:12;26.10;65.40
65752;DHT22;52486;51.098;13.770;2022-10-16T13:31:39;25.80;67.10
65752;DHT22;52486;51.098;13.770;2022-10-16T13:34:05;25.90;67.10
65752;DHT22;52486;51.098;13.770;2022-10-16T13:36:43;25.80;67.10
65752;DHT22;52486;51.098;13.770;2022-10-16T13:41:37;26.00;67.50
65752;DHT22;52486;51.098;13.770;2022-10-16T13:44:03;25.90;67.40
65752;DHT22;52486;51.098;13.770;2022-10-16T13:46:30;25.90;67.20
65752;DHT22;52486;51.098;13.770;2022-10-16T13:49:13;25.60;66.90
65752;DHT22;52486;51.098;13.770;2022-10-16T13:51:38;25.80;67.60
65752;DHT22;52486;51.098;13.770;2022-10-16T13:54:04;25.80;67.30
65752;DHT22;52486;51.098;13.770;2022-10-16T13:56:32;25.90;67.40
65752;DHT22;52486;51.098;13.770;2022-10-16T13:59:23;25.50;67.00
65752;DHT22;52486;51.098;13.770;2022-10-16T14:01:48;26.00;67.60
65752;DHT22;52486;51.098;13.770;2022-10-16T14:04:15;25.80;67.10
65752;DHT22;52486;51.098;13.770;2022-10-16T14:06:44;25.90;67.40
65752;DHT22;52486;51.098;13.770;2022-10-16T14:09:24;25.80;67.20
65752;DHT22;52486;51.098;13.770;2022-10-16T14:11:51;26.00;65.70
65752;DHT22;52486;51.098;13.770;2022-10-16T14:14:18;25.70;67.70
65752;DHT22;52486;51.098;13.770;2022-10-16T14:16:44;25.90;67.30
65752;DHT22;52486;51.098;13.770;2022-10-16T14:21:47;25.80;65.70
65752;DHT22;52486;51.098;13.770;2022-10-16T14:24:14;25.60;67.30
65752;DHT22;52486;51.098;13.770;2022-10-16T14:26:48;25.70;67.30
65752;DHT22;52486;51.098;13.770;2022-10-16T14:29:18;25.90;67.40
65752;DHT22;52486;51.098;13.770;2022-10-16T14:31:55;25.70;67.40
65752;DHT22;52486;51.098;13.770;2022-10-16T14:34:37;25.70;67.60
65752;DHT22;52486;51.098;13.770;2022-10-16T14:37:23;25.80;65.90
65752;DHT22;52486;51.098;13.770;2022-10-16T14:40:02;26.00;67.90
65752;DHT22;52486;51.098;13.770;2022-10-16T14:42:28;26.00;67.50
65752;DHT22;52486;51.098;13.770;2022-10-16T14:44:54;25.90;67.70
65752;DHT22;52486;51.098;13.770;2022-10-16T14:47:25;25.90;67.60
65752;DHT22;52486;51.098;13.770;2022-10-16T14:49:52;25.60;67.50
65752;DHT22;52486;51.098;13.770;2022-10-16T14:52:20;25.70;67.50
65752;DHT22;52486;51.098;13.770;2022-10-16T14:54:48;25.70;67.60
65752;DHT22;52486;51.098;13.770;2022-10-16T14:57:19;25.70;67.60
65752;DHT22;52486;51.098;13.770;2022-10-16T14:59:46;25.70;67.80
65752;DHT22;52486;51.098;13.770;2022-10-16T15:04:43;25.60;68.00
65752;DHT22;52486;51.098;13.770;2022-10-16T15:07:09;25.70;67.70
65752;DHT22;52486;51.098;13.770;2022-10-16T15:09:34;25.70;67.80
65752;DHT22;52486;51.098;13.770;2022-10-16T15:12:00;25.70;68.50
65752;DHT22;52486;51.098;13.770;2022-10-16T15:14:25;25.70;67.70
65752;DHT22;52486;51.098;13.770;2022-10-16T15:16:51;26.00;67.80
65752;DHT22;52486;51.098;13.770;2022-10-16T15:19:16;25.70;67.70
65752;DHT22;52486;51.098;13.770;2022-10-16T15:21:42;25.60;67.60
65752;DHT22;52486;51.098;13.770;2022-10-16T15:24:12;25.60;67.40
65752;DHT22;52486;51.098;13.770;2022-10-16T15:26:38;25.90;67.90
65752;DHT22;52486;51.098;13.770;2022-10-16T15:29:04;25.80;67.60
65752;DHT22;52486;51.098;13.770;2022-10-16T15:31:30;25.60;67.60
65752;DHT22;52486;51.098;13.770;2022-10-16T15:33:55;25.70;67.70
65752;DHT22;52486;51.098;13.770;2022-10-16T15:36:31;25.80;67.60
65752;DHT22;52486;51.098;13.770;2022-10-16T15:38:59;25.80;67.90
65752;DHT22;52486;51.098;13.770;2022-10-16T15:41:25;25.90;67.90
65752;DHT22;52486;51.098;13.770;2022-10-16T15:43:51;25.70;67.80
65752;DHT22;52486;51.098;13.770;2022-10-16T15:46:19;25.80;67.90
65752;DHT22;52486;51.098;13.770;2022-10-16T15:48:45;25.60;67.80
65752;DHT22;52486;51.098;13.770;2022-10-16T15:51:10;25.80;68.20
65752;DHT22;52486;51.098;13.770;2022-10-16T15:53:36;25.90;68.00
65752;DHT22;52486;51.098;13.770;2022-10-16T15:56:06;25.60;67.90
65752;DHT22;52486;51.098;13.770;2022-10-16T15:58:32;25.80;67.90
65752;DHT22;52486;51.098;13.770;2022-10-16T16:00:59;25.60;67.80
65752;DHT22;52486;51.098;13.770;2022-10-16T16:03:29;25.80;68.00
65752;DHT22;52486;51.098;13.770;2022-10-16T16:05:56;25.90;68.20
65752;DHT22;52486;51.098;13.770;2022-10-16T16:08:22;25.60;68.00
65752;DHT22;52486;51.098;13.770;2022-10-16T16:11:09;25.90;68.50
65752;DHT22;52486;51.098;13.770;2022-10-16T16:13:35;25.80;68.90
65752;DHT22;52486;51.098;13.770;2022-10-16T16:16:06;25.50;68.20
65752;DHT22;52486;51.098;13.770;2022-10-16T16:18:32;25.80;68.40
65752;DHT22;52486;51.098;13.770;2022-10-16T16:20:58;25.60;68.30
65752;DHT22;52486;51.098;13.770;2022-10-16T16:23:23;25.60;68.40
65752;DHT22;52486;51.098;13.770;2022-10-16T16:28:33;25.40;69.20
65752;DHT22;52486;51.098;13.770;2022-10-16T16:30:59;25.70;68.70
65752;DHT22;52486;51.098;13.770;2022-10-16T16:33:24;25.50;68.50
65752;DHT22;52486;51.098;13.770;2022-10-16T16:35:50;25.40;68.40
65752;DHT22;52486;51.098;13.770;2022-10-16T16:38:16;25.40;68.50
65752;DHT22;52486;51.098;13.770;2022-10-16T16:40:41;25.60;68.80
65752;DHT22;52486;51.098;13.770;2022-10-16T16:43:07;25.60;68.60
65752;DHT22;52486;51.098;13.770;2022-10-16T16:45:35;25.80;68.90
65752;DHT22;52486;51.098;13.770;2022-10-16T16:48:01;25.50;68.90
65752;DHT22;52486;51.098;13.770;2022-10-16T16:50:26;25.70;68.90